Time;durP1;ratioP1;P1;durP2;ratioP2;P2;SDS_P1;SDS_P2;PMS_P1;PMS_P2;Temp;Humidity;BMP_temperature;BMP_pressure;BME280_temperature;BME280_humidity;BME280_pressure;Samples;Min_cycle;Max_cycle;Signal;HPM_P1;HPM_P2
2023/09/05 00:01:52;;;;;;;5.50;2.30;;;18.30;99.90;;;;;;5031111;28;20076;-72
2023/09/05 00:04:38;;;;;;;;;;;18.30;99.90;;;;;;5054795;28;20477;-72
2023/09/05 00:07:27;;;;;;;4.57;2.00;;;18.30;99.90;;;;;;5039103;28;19944;-72
2023/09/05 00:10:13;;;;;;;4.60;2.05;;;18.30;99.90;;;;;;5018230;28;20076;-71
2023/09/05 00:13:05;;;;;;;5.70;2.03;;;18.40;99.90;;;;;;5046840;28;20063;-70
2023/09/05 00:15:51;;;;;;;3.63;1.83;;;18.40;99.90;;;;;;5036354;28;20124;-71
2023/09/05 00:18:37;;;;;;;7.45;1.85;;;18.40;99.90;;;;;;5033946;28;20061;-72
2023/09/05 00:21:23;;;;;;;5.07;1.98;;;18.40;99.90;;;;;;5042740;28;20374;-72
2023/09/05 00:24:31;;;;;;;6.00;2.20;;;18.50;99.90;;;;;;5020282;28;20552;-72
2023/09/05 00:27:17;;;;;;;;;;;18.50;99.90;;;;;;5039132;28;20076;-72
2023/09/05 00:30:03;;;;;;;5.53;1.80;;;18.50;99.90;;;;;;5045291;28;19916;-74
2023/09/05 00:32:49;;;;;;;4.30;2.22;;;18.50;99.90;;;;;;5036549;28;20047;-74
2023/09/05 00:35:35;;;;;;;4.10;1.95;;;18.40;99.90;;;;;;5054240;28;20115;-74
2023/09/05 00:38:24;;;;;;;3.30;1.90;;;18.50;99.90;;;;;;5036063;28;20056;-74
2023/09/05 00:41:11;;;;;;;4.30;1.83;;;18.50;99.90;;;;;;5018018;28;20038;-73
2023/09/05 00:43:58;;;;;;;3.38;1.83;;;18.50;99.90;;;;;;5033541;28;20048;-75
2023/09/05 00:46:46;;;;;;;3.08;1.75;;;18.50;99.90;;;;;;5010702;28;20110;-75
2023/09/05 00:49:38;;;;;;;;;;;18.50;99.90;;;;;;5035969;28;20033;-75
2023/09/05 00:52:25;;;;;;;5.97;1.77;;;18.60;99.90;;;;;;5018149;28;20013;-75
2023/09/05 00:55:11;;;;;;;3.45;1.95;;;18.60;99.90;;;;;;5027912;28;20044;-72
2023/09/05 00:58:00;;;;;;;2.80;1.85;;;18.70;99.90;;;;;;5020073;28;20450;-72
2023/09/05 01:00:46;;;;;;;2.83;1.77;;;18.70;99.90;;;;;;5065467;28;20037;-72
2023/09/05 01:03:32;;;;;;;4.53;1.77;;;18.70;99.90;;;;;;5040713;28;20064;-72
2023/09/05 01:06:41;;;;;;;3.22;1.75;;;18.60;99.90;;;;;;5031529;28;20069;-72
2023/09/05 01:10:08;;;;;;;4.38;1.80;;;18.60;99.90;;;;;;5033487;28;20104;-72
2023/09/05 01:12:57;;;;;;;3.65;1.92;;;18.70;99.90;;;;;;5031309;28;20026;-71
2023/09/05 01:15:43;;;;;;;3.70;1.98;;;18.70;99.90;;;;;;5057722;28;20089;-71
2023/09/05 01:18:33;;;;;;;3.25;1.90;;;18.60;99.90;;;;;;5030269;28;20374;-71
2023/09/05 01:21:26;;;;;;;5.68;2.30;;;18.60;99.90;;;;;;5024510;28;20741;-71
2023/09/05 01:24:16;;;;;;;4.82;1.88;;;18.60;99.90;;;;;;5038080;28;20458;-71
2023/09/05 01:27:03;;;;;;;6.10;1.85;;;18.60;99.90;;;;;;5033060;28;20049;-71
2023/09/05 01:29:51;;;;;;;3.72;1.88;;;18.60;99.90;;;;;;5033518;28;20120;-73
2023/09/05 01:32:37;;;;;;;4.28;1.90;;;18.60;99.90;;;;;;5031013;28;20116;-72
2023/09/05 01:35:23;;;;;;;3.85;2.17;;;18.60;99.90;;;;;;5042249;28;20044;-72
2023/09/05 01:38:09;;;;;;;3.63;1.80;;;18.60;99.90;;;;;;5038416;28;20053;-71
2023/09/05 01:40:55;;;;;;;7.60;2.20;;;18.50;99.90;;;;;;5036553;28;20103;-71
2023/09/05 01:43:41;;;;;;;3.88;2.17;;;18.50;99.90;;;;;;5034878;28;20529;-72
2023/09/05 01:46:27;;;;;;;6.47;2.15;;;18.50;99.90;;;;;;5042055;28;20049;-72
2023/09/05 01:49:13;;;;;;;2.97;1.80;;;18.40;99.90;;;;;;5020883;28;20041;-72
2023/09/05 01:51:59;;;;;;;4.65;2.00;;;18.40;99.90;;;;;;5042257;28;20086;-71
2023/09/05 01:54:45;;;;;;;3.05;2.03;;;18.30;99.90;;;;;;5031615;28;20462;-72
2023/09/05 01:57:32;;;;;;;5.30;2.10;;;18.20;99.90;;;;;;5038509;28;20428;-72
2023/09/05 02:00:18;;;;;;;5.03;2.10;;;18.10;99.90;;;;;;5053202;28;20049;-72
2023/09/05 02:03:04;;;;;;;3.63;2.30;;;18.10;99.90;;;;;;5036326;28;20044;-72
2023/09/05 02:05:50;;;;;;;5.85;2.33;;;18.10;99.90;;;;;;5046527;28;20045;-72
2023/09/05 02:08:36;;;;;;;5.07;2.70;;;18.00;99.90;;;;;;5034065;28;20049;-72
2023/09/05 02:11:23;;;;;;;2.67;1.80;;;18.10;99.90;;;;;;5036142;28;20033;-72
2023/09/05 02:14:09;;;;;;;5.15;2.20;;;18.00;99.90;;;;;;5039698;28;20530;-72
2023/09/05 02:16:55;;;;;;;5.00;2.20;;;18.00;99.90;;;;;;5047607;28;20045;-72
2023/09/05 02:19:41;;;;;;;4.35;2.03;;;18.00;99.90;;;;;;5036132;28;20060;-72
2023/09/05 02:22:27;;;;;;;3.17;2.10;;;17.90;99.90;;;;;;5036459;28;20041;-72
2023/09/05 02:25:13;;;;;;;4.55;2.33;;;17.80;99.90;;;;;;5041353;28;20041;-72
2023/09/05 02:27:59;;;;;;;3.33;2.10;;;17.70;99.90;;;;;;5039152;28;20102;-72
2023/09/05 02:30:45;;;;;;;3.80;2.60;;;17.70;99.90;;;;;;5022252;28;20156;-72
2023/09/05 02:33:34;;;;;;;5.68;2.60;;;17.70;99.90;;;;;;5038351;28;20064;-71
2023/09/05 02:36:20;;;;;;;;;;;17.60;99.90;;;;;;5065296;28;20044;-72
2023/09/05 02:39:06;;;;;;;6.07;2.40;;;17.60;99.90;;;;;;5037824;28;19921;-72
2023/09/05 02:41:52;;;;;;;3.63;2.35;;;17.50;99.90;;;;;;5037385;28;20045;-72
2023/09/05 02:44:40;;;;;;;7.18;2.60;;;17.60;99.90;;;;;;5038436;28;20428;-72
2023/09/05 02:47:26;;;;;;;5.13;2.33;;;17.50;99.90;;;;;;5031815;28;20059;-72
2023/09/05 02:50:11;;;;;;;5.68;2.72;;;17.50;99.90;;;;;;5036942;28;20037;-72
2023/09/05 02:52:57;;;;;;;5.85;2.55;;;17.50;99.90;;;;;;5041034;28;20049;-72
2023/09/05 02:55:44;;;;;;;5.78;2.80;;;17.40;99.90;;;;;;5045281;28;20079;-72
2023/09/05 02:58:31;;;;;;;4.50;2.42;;;17.40;99.90;;;;;;5006501;28;20069;-72
2023/09/05 03:01:17;;;;;;;5.80;2.75;;;17.30;99.90;;;;;;5031726;28;20056;-71
2023/09/05 03:04:03;;;;;;;6.78;2.45;;;17.20;99.90;;;;;;5049469;28;20875;-72
2023/09/05 03:06:49;;;;;;;5.43;2.30;;;17.20;99.90;;;;;;5054698;28;20670;-71
2023/09/05 03:09:35;;;;;;;8.05;2.65;;;17.10;99.90;;;;;;5022902;28;20029;-72
2023/09/05 03:12:21;;;;;;;5.45;2.35;;;17.10;99.90;;;;;;5023801;28;20064;-72
2023/09/05 03:15:08;;;;;;;5.13;3.03;;;17.10;99.90;;;;;;5043924;28;20195;-71
2023/09/05 03:17:53;;;;;;;3.45;2.45;;;17.10;99.90;;;;;;5047054;28;20525;-72
2023/09/05 03:20:39;;;;;;;5.68;2.97;;;17.10;99.90;;;;;;5033780;28;20059;-72
2023/09/05 03:23:25;;;;;;;5.00;2.70;;;17.00;99.90;;;;;;5036417;28;20056;-71
2023/09/05 03:26:11;;;;;;;4.25;2.55;;;16.90;99.90;;;;;;5025753;28;20132;-72
2023/09/05 03:28:59;;;;;;;4.95;2.88;;;16.90;99.90;;;;;;5045347;28;20045;-71
2023/09/05 03:31:45;;;;;;;;;;;17.00;99.90;;;;;;5055799;28;20098;-72
2023/09/05 03:34:34;;;;;;;4.57;2.80;;;16.90;99.90;;;;;;5037331;28;20001;-72
2023/09/05 03:37:20;;;;;;;6.30;2.63;;;16.90;99.90;;;;;;5034627;28;20049;-71
2023/09/05 03:40:08;;;;;;;5.90;2.83;;;16.80;99.90;;;;;;5033667;28;20386;-72
2023/09/05 03:42:54;;;;;;;6.78;2.53;;;16.80;99.90;;;;;;5035966;28;20041;-72
2023/09/05 03:45:40;;;;;;;4.38;2.55;;;16.80;99.90;;;;;;5033766;28;20045;-71
2023/09/05 03:48:26;;;;;;;6.28;2.90;;;16.80;99.90;;;;;;5045349;28;20122;-72
2023/09/05 03:51:12;;;;;;;6.28;2.60;;;16.80;99.90;;;;;;5039601;28;21772;-71
2023/09/05 03:54:01;;;;;;;6.28;2.95;;;16.80;99.90;;;;;;5040529;28;20037;-72
2023/09/05 03:56:47;;;;;;;4.57;2.75;;;16.70;99.90;;;;;;5037771;28;20800;-72
2023/09/05 03:59:33;;;;;;;8.07;2.83;;;16.70;99.90;;;;;;5043762;28;20049;-72
2023/09/05 04:02:19;;;;;;;4.15;2.42;;;16.70;99.90;;;;;;5038738;28;20456;-72
2023/09/05 04:05:05;;;;;;;3.97;2.65;;;16.70;99.90;;;;;;5045611;28;20119;-71
2023/09/05 04:07:51;;;;;;;3.90;2.80;;;16.70;99.90;;;;;;5049487;28;20051;-72
2023/09/05 04:10:38;;;;;;;5.90;3.25;;;16.70;99.90;;;;;;5038681;28;20533;-72
2023/09/05 04:13:24;;;;;;;4.63;2.33;;;16.60;99.90;;;;;;5018195;28;20037;-72
2023/09/05 04:16:10;;;;;;;5.35;2.90;;;16.70;99.90;;;;;;5040307;28;20045;-72
2023/09/05 04:18:56;;;;;;;3.83;2.25;;;16.70;99.90;;;;;;5051404;28;20055;-72
2023/09/05 04:21:42;;;;;;;4.07;2.83;;;16.60;99.90;;;;;;5041255;28;20142;-72
2023/09/05 04:24:28;;;;;;;5.25;3.10;;;16.60;99.90;;;;;;5041941;28;20037;-72
2023/09/05 04:27:14;;;;;;;4.07;2.47;;;16.50;99.90;;;;;;5045462;28;20045;-72
2023/09/05 04:30:00;;;;;;;4.85;2.42;;;16.40;99.90;;;;;;5051528;28;20039;-71
2023/09/05 04:32:46;;;;;;;6.72;2.88;;;16.30;99.90;;;;;;5023446;28;20044;-71
2023/09/05 04:35:32;;;;;;;5.75;3.30;;;16.30;99.90;;;;;;5045888;28;20052;-72
2023/09/05 04:38:18;;;;;;;5.05;3.00;;;16.20;99.90;;;;;;5021435;28;20535;-72
2023/09/05 04:41:06;;;;;;;6.55;3.30;;;16.20;99.90;;;;;;5033275;28;20037;-72
2023/09/05 04:43:51;;;;;;;4.95;3.25;;;16.10;99.90;;;;;;5022738;28;20048;-72
2023/09/05 04:46:38;;;;;;;10.07;3.55;;;16.10;99.90;;;;;;5018872;28;20469;-72
2023/09/05 04:49:24;;;;;;;6.38;3.17;;;16.10;99.90;;;;;;5040286;28;20047;-72
2023/09/05 04:52:11;;;;;;;5.45;3.95;;;16.20;99.90;;;;;;5041083;28;20041;-72
2023/09/05 04:54:59;;;;;;;6.45;3.38;;;16.20;99.90;;;;;;5045267;28;20045;-72
2023/09/05 04:57:47;;;;;;;5.72;3.40;;;16.10;99.90;;;;;;5034671;28;20047;-71
2023/09/05 05:00:33;;;;;;;4.95;2.92;;;16.10;99.90;;;;;;5044540;28;20045;-72
2023/09/05 05:03:19;;;;;;;4.68;2.92;;;16.10;99.90;;;;;;5044484;28;20041;-72
2023/09/05 05:06:05;;;;;;;7.53;3.78;;;16.20;99.90;;;;;;5038664;28;20041;-71
2023/09/05 05:08:51;;;;;;;7.43;3.60;;;16.20;99.90;;;;;;5041525;28;20041;-72
2023/09/05 05:11:37;;;;;;;4.97;3.28;;;16.20;99.90;;;;;;5030752;28;20486;-71
2023/09/05 05:14:23;;;;;;;6.60;3.60;;;16.10;99.90;;;;;;5040561;28;20045;-71
2023/09/05 05:17:12;;;;;;;7.20;3.30;;;16.10;99.90;;;;;;5048929;28;20041;-72
2023/09/05 05:19:58;;;;;;;4.15;2.78;;;16.20;99.90;;;;;;5034998;28;20069;-72
2023/09/05 05:22:44;;;;;;;8.80;3.33;;;16.20;99.90;;;;;;5040302;28;20041;-72
2023/09/05 05:25:31;;;;;;;7.00;4.00;;;16.20;99.90;;;;;;5052045;28;20060;-71
2023/09/05 05:28:17;;;;;;;7.32;4.88;;;16.20;99.90;;;;;;5037221;28;20163;-72
2023/09/05 05:31:03;;;;;;;12.05;5.25;;;16.20;99.90;;;;;;5026398;28;20056;-72
2023/09/05 05:33:49;;;;;;;6.25;4.30;;;16.30;99.90;;;;;;5036142;28;20033;-71
2023/09/05 05:36:35;;;;;;;9.32;5.75;;;16.30;99.90;;;;;;5033380;28;20041;-75
2023/09/05 05:39:22;;;;;;;7.63;5.10;;;16.30;99.90;;;;;;5039249;28;20048;-72
2023/09/05 05:42:09;;;;;;;7.82;4.82;;;16.30;99.90;;;;;;5044966;28;20042;-72
2023/09/05 05:44:55;;;;;;;10.07;5.70;;;16.40;99.90;;;;;;5050224;28;20155;-72
2023/09/05 05:47:41;;;;;;;9.43;5.25;;;16.40;99.90;;;;;;5034399;28;20804;-72
2023/09/05 05:50:27;;;;;;;9.02;6.15;;;16.40;99.90;;;;;;5040700;28;20037;-72
2023/09/05 05:53:13;;;;;;;9.90;6.30;;;16.40;99.90;;;;;;5028726;28;20045;-72
2023/09/05 05:55:59;;;;;;;7.93;5.40;;;16.40;99.90;;;;;;5036756;28;20790;-72
2023/09/05 05:58:48;;;;;;;10.00;5.80;;;16.50;99.90;;;;;;5024305;28;20049;-72
2023/09/05 06:01:34;;;;;;;9.13;5.40;;;16.50;99.90;;;;;;5026043;28;20037;-72
2023/09/05 06:04:20;;;;;;;11.32;5.75;;;16.50;99.90;;;;;;5040482;28;20083;-72
2023/09/05 06:07:06;;;;;;;6.40;5.20;;;16.50;99.90;;;;;;5029477;28;20047;-72
2023/09/05 06:09:52;;;;;;;7.28;5.70;;;16.60;99.90;;;;;;5040743;28;20034;-72
2023/09/05 06:12:38;;;;;;;11.48;5.80;;;16.60;99.90;;;;;;5037169;28;20040;-72
2023/09/05 06:15:24;;;;;;;12.10;6.05;;;16.60;99.90;;;;;;5034496;28;20038;-72
2023/09/05 06:18:11;;;;;;;8.50;5.93;;;16.60;99.90;;;;;;5043227;28;20132;-72
2023/09/05 06:20:57;;;;;;;9.83;6.43;;;16.70;99.90;;;;;;5024097;28;20593;-72
2023/09/05 06:23:43;;;;;;;9.23;6.20;;;16.70;99.90;;;;;;5057904;28;20037;-72
2023/09/05 06:26:29;;;;;;;6.80;5.03;;;16.70;99.90;;;;;;5015074;28;20858;-72
2023/09/05 06:29:15;;;;;;;8.55;5.53;;;16.80;99.90;;;;;;5023964;28;20047;-72
2023/09/05 06:32:01;;;;;;;9.38;5.68;;;16.90;99.90;;;;;;5038165;28;20045;-72
2023/09/05 06:34:47;;;;;;;7.10;5.10;;;16.90;99.90;;;;;;5030909;28;20076;-72
2023/09/05 06:37:36;;;;;;;9.27;5.32;;;17.00;99.90;;;;;;5050286;28;20743;-72
2023/09/05 06:40:23;;;;;;;7.82;5.55;;;17.10;99.90;;;;;;5005951;28;20155;-72
2023/09/05 06:43:10;;;;;;;7.15;4.80;;;17.10;99.90;;;;;;5045178;28;20183;-72
2023/09/05 06:46:07;;;;;;;10.45;4.47;;;17.20;99.90;;;;;;5028885;28;20042;-72
2023/09/05 06:48:54;;;;;;;6.25;4.43;;;17.30;99.90;;;;;;5019768;28;20356;-72
2023/09/05 06:51:40;;;;;;;6.40;4.13;;;17.40;99.90;;;;;;5029857;28;20043;-72
2023/09/05 06:54:26;;;;;;;9.75;4.25;;;17.50;99.90;;;;;;5035770;28;20048;-72
2023/09/05 06:57:12;;;;;;;7.13;4.35;;;17.60;99.90;;;;;;5038006;28;20048;-72
2023/09/05 06:59:58;;;;;;;7.60;4.40;;;17.60;99.90;;;;;;5018599;28;20049;-72
2023/09/05 07:02:44;;;;;;;6.78;4.38;;;17.70;99.90;;;;;;5033310;28;20128;-72
2023/09/05 07:05:30;;;;;;;4.85;4.20;;;17.80;99.90;;;;;;5031566;28;20041;-72
2023/09/05 07:08:16;;;;;;;6.40;4.28;;;17.90;99.90;;;;;;5036922;28;20478;-72
2023/09/05 07:11:03;;;;;;;5.88;3.70;;;17.90;99.90;;;;;;5033699;28;20350;-72
2023/09/05 07:13:50;;;;;;;6.20;3.40;;;18.00;99.90;;;;;;5021217;28;20033;-72
2023/09/05 07:16:36;;;;;;;6.57;3.58;;;18.10;99.90;;;;;;5041210;28;20045;-72
2023/09/05 07:19:22;;;;;;;5.97;3.40;;;18.20;99.90;;;;;;5033718;28;20057;-72
2023/09/05 07:22:08;;;;;;;6.07;3.55;;;18.30;99.90;;;;;;5034643;28;20482;-72
2023/09/05 07:24:54;;;;;;;6.43;3.20;;;18.40;99.90;;;;;;5008985;28;20522;-73
2023/09/05 07:27:40;;;;;;;6.90;3.17;;;18.50;99.90;;;;;;5014210;28;20052;-73
2023/09/05 07:30:26;;;;;;;4.57;3.05;;;18.60;99.90;;;;;;5022148;28;20067;-72
2023/09/05 07:33:12;;;;;;;6.13;3.22;;;18.60;99.90;;;;;;5047846;28;20139;-71
2023/09/05 07:35:58;;;;;;;7.65;3.00;;;18.70;99.90;;;;;;5031209;28;20047;-71
2023/09/05 07:38:46;;;;;;;5.53;2.90;;;18.80;99.90;;;;;;5035698;28;20041;-72
2023/09/05 07:41:33;;;;;;;6.32;2.80;;;18.90;99.90;;;;;;5005765;28;20474;-72
2023/09/05 07:44:19;;;;;;;6.38;2.55;;;19.00;99.90;;;;;;5031822;28;20406;-72
2023/09/05 07:47:05;;;;;;;4.50;2.63;;;19.10;99.90;;;;;;5031547;28;20037;-72
2023/09/05 07:49:51;;;;;;;6.80;3.47;;;19.20;99.90;;;;;;5029889;28;20045;-72
2023/09/05 07:52:37;;;;;;;4.88;2.60;;;19.30;99.90;;;;;;5036363;28;20033;-71
2023/09/05 07:55:23;;;;;;;3.92;2.90;;;19.40;99.90;;;;;;5031246;28;20041;-72
2023/09/05 07:58:10;;;;;;;5.57;2.83;;;19.40;99.90;;;;;;5021249;28;20041;-72
2023/09/05 08:00:56;;;;;;;3.85;2.53;;;19.50;99.90;;;;;;5029840;28;20389;-72
2023/09/05 08:03:42;;;;;;;5.65;2.70;;;19.60;99.90;;;;;;5030566;28;20054;-72
2023/09/05 08:06:28;;;;;;;4.82;2.50;;;19.60;99.90;;;;;;5029165;28;20111;-71
2023/09/05 08:09:14;;;;;;;4.82;2.75;;;19.80;99.90;;;;;;5035532;28;20047;-72
2023/09/05 08:12:01;;;;;;;4.15;2.67;;;19.80;99.90;;;;;;5029643;28;20086;-72
2023/09/05 08:14:47;;;;;;;5.70;2.60;;;19.90;99.90;;;;;;5030267;28;20033;-72
2023/09/05 08:17:34;;;;;;;6.00;2.50;;;20.00;99.90;;;;;;5024514;28;20044;-73
2023/09/05 08:20:21;;;;;;;5.03;2.30;;;20.10;99.90;;;;;;5022843;28;20139;-72
2023/09/05 08:23:08;;;;;;;7.13;2.58;;;20.10;99.90;;;;;;5032267;28;20199;-72
2023/09/05 08:25:55;;;;;;;5.68;1.92;;;20.30;99.90;;;;;;5023592;28;20087;-72
2023/09/05 08:28:43;;;;;;;4.50;1.80;;;20.40;99.90;;;;;;5025797;28;20397;-72
2023/09/05 08:31:30;;;;;;;3.22;2.00;;;20.40;99.90;;;;;;5036763;28;20038;-73
2023/09/05 08:34:16;;;;;;;3.65;2.00;;;20.50;99.90;;;;;;5020303;28;20431;-73
2023/09/05 08:37:02;;;;;;;6.18;2.92;;;20.70;99.90;;;;;;5018873;28;20040;-72
2023/09/05 08:39:48;;;;;;;5.47;2.22;;;20.80;99.90;;;;;;5034224;28;20111;-72
2023/09/05 08:42:36;;;;;;;5.25;2.95;;;20.80;99.90;;;;;;5048265;28;20037;-72
2023/09/05 08:45:22;;;;;;;15.80;10.63;;;21.00;99.90;;;;;;5037080;28;20045;-72
2023/09/05 08:48:08;;;;;;;6.60;3.25;;;20.90;99.90;;;;;;5042805;28;20363;-72
2023/09/05 08:50:56;;;;;;;6.43;1.80;;;20.90;99.90;;;;;;5029891;28;20076;-73
2023/09/05 08:53:43;;;;;;;;;;;21.00;99.90;;;;;;5045469;28;20044;-72
2023/09/05 08:56:29;;;;;;;4.90;2.00;;;21.10;99.90;;;;;;5022001;28;19912;-72
2023/09/05 08:59:17;;;;;;;3.10;1.98;;;21.20;99.90;;;;;;5021021;28;20037;-72
2023/09/05 09:02:03;;;;;;;2.87;1.90;;;21.30;99.90;;;;;;5028699;28;20057;-72
2023/09/05 09:04:53;;;;;;;4.50;1.98;;;21.50;99.90;;;;;;5028602;28;20408;-73
2023/09/05 09:07:39;;;;;;;5.05;2.08;;;21.60;99.90;;;;;;5030666;28;20079;-72
2023/09/05 09:10:25;;;;;;;3.10;1.52;;;21.80;99.90;;;;;;5028540;28;20076;-73
2023/09/05 09:13:16;;;;;;;3.60;1.90;;;22.00;99.90;;;;;;5031563;28;20092;-72
2023/09/05 09:16:02;;;;;;;2.70;1.70;;;22.00;99.90;;;;;;5029531;28;20033;-72
2023/09/05 09:19:08;;;;;;;3.60;1.55;;;22.00;99.90;;;;;;5015902;28;20405;-72
2023/09/05 09:22:01;;;;;;;3.85;2.03;;;22.20;99.90;;;;;;5032567;28;20045;-72
2023/09/05 09:24:47;;;;;;;5.15;1.67;;;22.20;99.90;;;;;;5029311;28;20055;-75
2023/09/05 09:27:33;;;;;;;4.80;1.83;;;22.30;99.90;;;;;;5032699;28;20037;-76
2023/09/05 09:30:23;;;;;;;4.05;1.70;;;22.40;99.90;;;;;;5038905;28;20063;-75
2023/09/05 09:33:09;;;;;;;4.32;1.83;;;22.50;99.90;;;;;;5011627;28;20118;-75
2023/09/05 09:36:03;;;;;;;3.45;1.65;;;22.50;99.90;;;;;;5033508;28;20033;-75
2023/09/05 09:38:51;;;;;;;5.13;1.50;;;22.70;99.90;;;;;;5041020;28;20041;-74
2023/09/05 09:41:43;;;;;;;5.88;1.73;;;22.70;99.90;;;;;;5030886;28;20478;-75
2023/09/05 09:44:32;;;;;;;3.97;1.83;;;22.70;99.90;;;;;;5031750;28;20374;-75
2023/09/05 09:47:18;;;;;;;5.80;1.60;;;23.00;99.90;;;;;;5027327;28;20373;-75
2023/09/05 09:50:04;;;;;;;4.60;1.67;;;23.20;99.80;;;;;;5038262;28;20037;-75
2023/09/05 09:52:52;;;;;;;3.35;1.92;;;23.30;99.90;;;;;;5007622;28;20041;-76
2023/09/05 09:55:43;;;;;;;5.25;1.85;;;23.50;99.30;;;;;;5028943;28;20051;-75
2023/09/05 09:58:28;;;;;;;3.50;2.15;;;23.70;99.00;;;;;;5043678;28;20045;-76
2023/09/05 10:01:15;;;;;;;3.05;1.83;;;23.80;98.70;;;;;;5015201;28;20052;-76
2023/09/05 10:04:00;;;;;;;3.95;1.50;;;23.90;99.20;;;;;;5042664;28;20551;-75
2023/09/05 10:06:48;;;;;;;3.55;1.60;;;24.10;98.90;;;;;;5034704;28;20143;-74
2023/09/05 10:09:35;;;;;;;;;;;24.20;98.40;;;;;;5035793;28;20037;-76
2023/09/05 10:12:21;;;;;;;5.45;1.67;;;24.30;98.50;;;;;;5033746;28;19965;-75
2023/09/05 10:15:08;;;;;;;4.15;1.63;;;24.40;98.30;;;;;;5024024;28;20147;-76
2023/09/05 10:17:54;;;;;;;4.50;1.52;;;24.50;98.90;;;;;;5049365;28;20036;-75
2023/09/05 10:20:40;;;;;;;6.00;1.77;;;24.60;99.90;;;;;;5017834;28;20090;-75
2023/09/05 10:23:31;;;;;;;5.22;1.60;;;24.80;99.20;;;;;;5037752;28;20041;-75
2023/09/05 10:26:17;;;;;;;3.38;1.42;;;25.00;98.10;;;;;;5021923;28;20048;-75
2023/09/05 10:29:45;;;;;;;4.30;1.77;;;25.00;97.70;;;;;;5034484;28;20100;-75
2023/09/05 10:32:33;;;;;;;4.20;1.50;;;25.10;97.60;;;;;;5032956;28;20096;-74
2023/09/05 10:35:20;;;;;;;2.97;1.65;;;25.20;96.90;;;;;;5028751;28;20041;-74
2023/09/05 10:38:07;;;;;;;5.35;1.60;;;25.40;97.00;;;;;;5022199;28;20517;-75
2023/09/05 10:40:53;;;;;;;6.95;1.40;;;25.50;96.70;;;;;;5031353;28;20156;-75
2023/09/05 10:43:55;;;;;;;3.83;1.55;;;25.70;96.20;;;;;;5038750;28;20040;-75
2023/09/05 10:46:41;;;;;;;4.70;1.50;;;25.70;95.80;;;;;;5037747;28;20068;-75
2023/09/05 10:49:27;;;;;;;6.47;2.00;;;25.80;95.70;;;;;;5049742;28;20032;-75
2023/09/05 10:52:18;;;;;;;7.00;1.73;;;26.10;96.00;;;;;;5031814;28;20620;-75
2023/09/05 10:55:29;;;;;;;4.15;1.33;;;26.20;95.10;;;;;;5030456;28;20041;-75
2023/09/05 10:58:47;;;;;;;3.63;1.50;;;26.30;94.80;;;;;;5033715;28;20509;-75
2023/09/05 11:01:33;;;;;;;2.00;1.02;;;26.60;95.20;;;;;;5021818;28;20049;-75
2023/09/05 11:04:21;;;;;;;2.97;1.10;;;26.70;93.80;;;;;;5036449;28;20488;-76
2023/09/05 11:07:09;;;;;;;2.70;1.30;;;26.80;94.10;;;;;;5030321;28;20155;-76
2023/09/05 11:09:56;;;;;;;2.75;1.10;;;26.90;93.20;;;;;;5029445;28;20374;-76
2023/09/05 11:12:41;;;;;;;3.15;1.20;;;26.90;93.40;;;;;;5026267;28;20095;-76
2023/09/05 11:15:31;;;;;;;3.20;1.17;;;27.30;94.50;;;;;;5023879;28;20045;-76
2023/09/05 11:18:19;;;;;;;2.60;1.13;;;27.30;93.20;;;;;;5032588;28;20081;-76
2023/09/05 11:21:06;;;;;;;4.63;1.38;;;27.40;92.70;;;;;;5039970;28;20072;-76
2023/09/05 11:23:55;;;;;;;6.13;1.35;;;27.40;92.50;;;;;;5027743;28;20347;-76
2023/09/05 11:26:41;;;;;;;5.30;1.30;;;27.50;92.50;;;;;;5042864;28;20037;-75
2023/09/05 11:29:28;;;;;;;4.82;1.38;;;27.70;92.20;;;;;;5027979;28;20135;-76
2023/09/05 11:32:15;;;;;;;3.35;1.20;;;27.80;92.10;;;;;;5030405;28;20405;-75
2023/09/05 11:35:03;;;;;;;2.72;1.40;;;28.00;92.20;;;;;;5061647;28;20414;-76
2023/09/05 11:37:57;;;;;;;2.42;1.30;;;28.00;91.80;;;;;;5005587;28;20049;-76
2023/09/05 11:40:50;;;;;;;2.75;1.45;;;;;;;;;;5017602;28;20156;-75
2023/09/05 11:43:47;;;;;;;3.33;1.08;;;27.90;91.10;;;;;;5029140;28;20050;-75
2023/09/05 11:46:35;;;;;;;3.67;1.23;;;28.00;91.80;;;;;;5021519;28;20441;-76
2023/09/05 11:49:21;;;;;;;2.05;1.25;;;28.00;90.90;;;;;;5030383;28;20095;-77
2023/09/05 11:52:08;;;;;;;4.95;1.20;;;28.00;91.10;;;;;;5030501;28;20045;-76
2023/09/05 11:54:54;;;;;;;2.85;1.25;;;28.20;91.20;;;;;;5031902;28;20366;-75
2023/09/05 11:57:40;;;;;;;4.10;1.00;;;28.40;91.70;;;;;;5037543;28;20500;-76
2023/09/05 12:00:26;;;;;;;3.83;1.30;;;28.60;91.20;;;;;;5020857;28;20049;-76
2023/09/05 12:03:14;;;;;;;2.45;1.30;;;28.70;91.60;;;;;;5029440;28;20525;-77
2023/09/05 12:06:01;;;;;;;6.78;1.80;;;28.80;91.20;;;;;;5033212;28;20481;-76
2023/09/05 12:08:47;;;;;;;2.22;1.20;;;28.90;90.50;;;;;;5018749;28;20642;-76
2023/09/05 12:11:33;;;;;;;2.45;1.20;;;28.90;90.40;;;;;;5039992;28;20361;-77
2023/09/05 12:14:20;;;;;;;3.28;1.10;;;28.90;89.90;;;;;;5026829;28;20047;-76
2023/09/05 12:17:07;;;;;;;4.60;1.17;;;29.00;88.70;;;;;;5030705;28;20042;-76
2023/09/05 12:19:54;;;;;;;2.00;1.08;;;29.00;88.60;;;;;;5030393;28;20100;-76
2023/09/05 12:22:40;;;;;;;2.88;1.02;;;29.40;89.60;;;;;;5029975;28;20049;-77
2023/09/05 12:25:28;;;;;;;2.28;1.13;;;29.60;89.50;;;;;;5014870;28;20374;-76
2023/09/05 12:28:16;;;;;;;1.98;1.00;;;29.80;89.30;;;;;;5024568;28;20045;-77
2023/09/05 12:31:10;;;;;;;2.38;1.00;;;29.80;88.00;;;;;;5036322;28;20076;-77
2023/09/05 12:33:56;;;;;;;4.93;1.73;;;29.90;87.80;;;;;;5035938;28;20051;-77
2023/09/05 12:36:42;;;;;;;2.20;1.30;;;30.00;87.00;;;;;;5023349;28;20061;-76
2023/09/05 12:39:28;;;;;;;2.47;1.00;;;30.20;85.50;;;;;;5035927;28;20373;-76
2023/09/05 12:42:14;;;;;;;2.33;1.30;;;30.30;88.00;;;;;;5030059;28;20037;-77
2023/09/05 12:45:00;;;;;;;4.72;1.13;;;30.40;85.20;;;;;;5026254;28;20051;-76
2023/09/05 12:47:51;;;;;;;4.30;1.20;;;30.50;85.30;;;;;;5048521;28;20045;-76
2023/09/05 12:50:37;;;;;;;2.67;1.00;;;30.60;85.00;;;;;;5028966;28;20100;-77
2023/09/05 12:53:23;;;;;;;4.88;1.08;;;31.10;85.80;;;;;;5028894;28;20048;-77
2023/09/05 12:56:09;;;;;;;4.53;1.00;;;31.40;83.50;;;;;;5015143;28;20081;-77
2023/09/05 12:58:55;;;;;;;3.88;1.15;;;36.80;73.90;;;;;;5028859;28;20041;-77
2023/09/05 13:01:41;;;;;;;2.38;1.13;;;41.60;61.60;;;;;;5017988;28;20414;-77
2023/09/05 13:04:29;;;;;;;2.85;1.02;;;;;;;;;;5040813;28;20094;-77
2023/09/05 13:07:15;;;;;;;1.50;1.00;;;45.00;53.70;;;;;;5038618;28;20046;-78
2023/09/05 13:10:01;;;;;;;4.82;1.10;;;47.30;48.60;;;;;;5042093;28;20140;-75
2023/09/05 13:12:49;;;;;;;4.45;1.00;;;47.50;48.30;;;;;;5032491;28;20052;-77
2023/09/05 13:15:35;;;;;;;3.92;0.90;;;45.60;46.60;;;;;;5041493;28;20045;-76
2023/09/05 13:18:21;;;;;;;2.05;0.90;;;41.60;50.20;;;;;;5037107;28;20057;-76
2023/09/05 13:21:09;;;;;;;1.93;0.80;;;39.70;52.70;;;;;;5033426;28;20069;-76
2023/09/05 13:23:55;;;;;;;1.67;0.85;;;38.10;56.10;;;;;;5030858;28;20046;-75
2023/09/05 13:26:41;;;;;;;3.05;0.80;;;37.40;56.10;;;;;;5008879;28;20127;-77
2023/09/05 13:29:27;;;;;;;2.90;0.95;;;37.70;56.00;;;;;;5035691;28;20102;-76
2023/09/05 13:32:14;;;;;;;2.92;0.80;;;43.90;50.40;;;;;;5034236;28;20055;-77
2023/09/05 13:34:59;;;;;;;3.25;1.00;;;46.00;50.00;;;;;;5045437;28;20044;-77
2023/09/05 13:37:45;;;;;;;4.10;0.80;;;47.40;44.70;;;;;;5031543;28;20069;-78
2023/09/05 13:40:31;;;;;;;5.60;0.95;;;49.20;45.20;;;;;;5044893;28;20080;-77
2023/09/05 13:43:17;;;;;;;4.75;0.70;;;49.30;44.40;;;;;;5030608;28;20045;-76
2023/09/05 13:46:03;;;;;;;2.35;0.77;;;51.30;42.80;;;;;;5039949;28;20045;-75
2023/09/05 13:48:50;;;;;;;5.13;1.25;;;51.30;43.80;;;;;;5040574;28;20068;-75
2023/09/05 13:51:37;;;;;;;2.15;0.95;;;52.00;42.10;;;;;;5044437;28;20041;-75
2023/09/05 13:54:24;;;;;;;4.13;0.88;;;52.90;42.90;;;;;;5034326;28;20120;-77
2023/09/05 13:57:10;;;;;;;2.00;0.70;;;53.10;41.30;;;;;;5019374;28;20041;-76
2023/09/05 13:59:56;;;;;;;0.90;0.60;;;52.10;39.50;;;;;;5036883;28;20401;-76
2023/09/05 14:02:42;;;;;;;;;;;52.60;40.10;;;;;;5049329;28;20095;-75
2023/09/05 14:05:28;;;;;;;2.83;0.80;;;52.80;39.10;;;;;;5043188;28;20273;-76
2023/09/05 14:08:14;;;;;;;2.35;0.70;;;52.50;38.60;;;;;;5030061;28;20110;-75
2023/09/05 14:11:00;;;;;;;3.05;1.20;;;52.70;38.00;;;;;;5027323;28;20099;-75
2023/09/05 14:13:48;;;;;;;1.55;0.65;;;52.20;38.40;;;;;;5042176;28;20033;-75
2023/09/05 14:16:34;;;;;;;1.90;0.60;;;48.60;39.30;;;;;;5015322;28;20040;-75
2023/09/05 14:19:20;;;;;;;;;;;49.80;40.70;;;;;;5036511;28;20063;-74
2023/09/05 14:22:06;;;;;;;3.17;0.68;;;52.00;40.70;;;;;;5035853;28;19971;-74
2023/09/05 14:24:52;;;;;;;2.40;0.80;;;52.60;39.70;;;;;;5037370;28;20079;-76
2023/09/05 14:27:38;;;;;;;1.65;0.70;;;;;;;;;;5039109;28;20041;-75
2023/09/05 14:30:24;;;;;;;2.17;0.70;;;53.10;38.50;;;;;;5036799;28;20036;-75
2023/09/05 14:33:11;;;;;;;1.63;0.70;;;;;;;;;;5020324;28;20478;-75
2023/09/05 14:35:59;;;;;;;1.77;0.60;;;;;;;;;;5042676;28;20052;-75